Latest Weather Observations for Perth

IDW60901

Issued at 1:42 pm WST Wednesday 27 July 2016 (issued every 10 minutes, with the page automatically refreshed every 10 minutes)

About weather observations | Map of Perth area stations | Latest observations for Perth area | Other Formats
Station Details ID: 009225 Name: PERTH METRO Lat: -31.92 Lon: 115.87 Height: 24.9 m
Data from the previous 72 hours. | See also: Recent months at Perth
Date/Time
WST
Temp
°C
App
Temp
°C
Dew
Point
°C
Rel
Hum
%
Delta-T
°C
Wind Press
QNH
hPa
Press
MSL
hPa
Rain since
9am
mm
Dir  Spd
km/h
Gust
km/h
Spd
kts
Gust
kts
27/01:30pm 18.4 15.9 8.1 51 5.3 N 11 19 6 10 1023.7 1023.7 0.0
27/01:00pm 18.1 15.8 8.9 55 4.8 NNE 11 19 6 10 1024.5 1024.5 0.0
27/12:30pm 17.2 14.4 8.4 56 4.5 NE 13 20 7 11 1024.8 1024.8 0.0
27/12:00pm 16.6 13.9 8.8 60 4.0 NE 13 20 7 11 1025.7 1025.7 0.0
27/11:30am 15.8 13.2 9.2 65 3.4 NE 13 19 7 10 1025.7 1025.7 0.0
27/11:00am 14.7 12.9 9.3 70 2.8 NE 9 19 5 10 1026.3 1026.3 0.0
27/10:30am 13.3 11.4 9.2 76 2.1 ENE 9 13 5 7 1026.6 1026.6 0.0
27/10:00am 11.8 10.5 9.2 84 1.3 SSW 6 11 3 6 1027.1 1027.1 0.0
27/09:30am 9.9 9.7 9.0 94 0.4 CALM 0 0 0 0 1027.1 1027.1 0.0
27/09:00am 8.8 8.5 8.5 98 0.1 CALM 0 4 0 2 1027.0 1027.0 0.0
27/08:30am 7.9 7.4 7.8 99 0.0 CALM 0 0 0 0 1026.9 1026.9 0.0
27/08:00am 7.2 6.5 7.1 99 0.0 CALM 0 0 0 0 1027.2 1027.2 0.0
27/07:30am 6.3 5.4 6.2 99 0.0 CALM 0 6 0 3 1027.1 1027.1 0.0
27/07:00am 5.3 4.2 5.2 99 0.0 CALM 0 0 0 0 1027.5 1027.5 0.0
27/06:30am 5.4 4.3 5.3 99 0.0 CALM 0 0 0 0 1027.6 1027.6 0.0
27/06:00am 5.3 4.2 5.2 99 0.0 CALM 0 0 0 0 1027.8 1027.8 0.0
27/05:30am 5.4 4.3 5.1 98 0.1 CALM 0 0 0 0 1027.4 1027.4 0.0
27/05:00am 5.5 4.4 5.2 98 0.1 CALM 0 0 0 0 1027.4 1027.4 0.0
27/04:30am 5.4 4.3 5.1 98 0.1 CALM 0 0 0 0 1027.0 1027.0 0.0
27/04:00am 5.7 4.7 5.4 98 0.1 CALM 0 0 0 0 1027.0 1027.0 0.0
27/03:30am 5.6 4.5 5.3 98 0.1 CALM 0 0 0 0 1027.3 1027.3 0.0
27/03:00am 5.6 4.5 5.2 97 0.2 CALM 0 0 0 0 1027.6 1027.6 0.0
27/02:30am 5.5 4.4 5.1 97 0.2 CALM 0 0 0 0 1027.6 1027.6 0.0
27/02:00am 6.0 5.0 5.6 97 0.2 CALM 0 0 0 0 1027.6 1027.6 0.0
27/01:30am 6.5 5.6 6.1 97 0.2 CALM 0 0 0 0 1027.7 1027.7 0.0
27/01:00am 6.6 5.7 6.0 96 0.3 CALM 0 0 0 0 1027.7 1027.7 0.0
27/12:30am 7.2 6.5 6.8 97 0.2 CALM 0 0 0 0 1027.5 1027.5 0.0
27/12:00am 7.2 6.4 6.6 96 0.3 CALM 0 0 0 0 1027.6 1027.6 0.0
 
Date/Time
WST
Temp
°C
App
Temp
°C
Dew
Point
°C
Rel
Hum
%
Delta-T
°C
Wind Press
QNH
hPa
Press
MSL
hPa
Rain since
9am
mm
Dir  Spd
km/h
Gust
km/h
Spd
kts
Gust
kts
26/11:30pm 7.7 7.0 7.1 96 0.3 CALM 0 0 0 0 1027.6 1027.6 0.0
26/11:00pm 8.1 7.5 7.3 95 0.4 CALM 0 0 0 0 1027.6 1027.6 0.0
26/10:30pm 8.3 7.7 7.4 94 0.4 CALM 0 0 0 0 1027.7 1027.7 0.0
26/10:00pm 9.0 8.6 8.1 94 0.4 CALM 0 0 0 0 1028.0 1028.0 0.0
26/09:30pm 9.6 9.3 8.5 93 0.5 CALM 0 2 0 1 1028.2 1028.2 0.0
26/09:00pm 9.8 9.4 8.4 91 0.7 CALM 0 0 0 0 1028.3 1028.3 0.0
26/08:30pm 10.2 9.8 8.3 88 0.9 CALM 0 0 0 0 1028.3 1028.3 0.0
26/08:00pm 11.6 10.3 9.3 86 1.1 SSW 6 7 3 4 1028.2 1028.2 0.0
26/07:30pm 11.1 10.9 9.2 88 0.9 CALM 0 0 0 0 1028.0 1028.0 0.0
26/07:00pm 11.6 11.4 9.0 84 1.3 CALM 0 0 0 0 1027.8 1027.8 0.0
26/06:30pm 12.7 12.6 9.3 80 1.7 CALM 0 0 0 0 1027.5 1027.5 0.0
26/06:00pm 14.1 13.2 9.1 72 2.5 SSW 4 7 2 4 1027.1 1027.1 0.0
26/05:30pm 15.2 13.7 9.1 67 3.1 SSW 7 13 4 7 1026.9 1026.9 0.0
26/05:00pm 16.0 14.5 9.2 64 3.5 SSW 7 11 4 6 1026.8 1026.8 0.0
26/04:30pm 17.0 14.8 9.2 60 4.1 SW 11 17 6 9 1026.8 1026.8 0.0
26/04:00pm 17.3 15.1 9.5 60 4.1 SW 11 19 6 10 1026.9 1026.9 0.0
26/03:30pm 17.0 15.6 9.4 61 4.0 SSW 7 15 4 8 1026.8 1026.8 0.0
26/03:00pm 17.9 16.4 9.3 57 4.5 SSW 7 13 4 7 1026.9 1026.9 0.0
26/02:30pm 16.9 15.6 9.3 61 4.0 SSE 6 9 3 5 1027.0 1027.0 0.0
26/02:00pm 17.9 15.8 9.8 59 4.3 S 11 15 6 8 1027.0 1027.0 0.0
26/01:30pm 17.2 15.4 9.4 60 4.1 SSW 9 17 5 9 1027.3 1027.3 0.0
26/01:00pm 18.1 16.5 10.2 60 4.2 SSW 9 13 5 7 1027.6 1027.6 0.0
26/12:30pm 17.1 15.6 9.0 59 4.2 SSW 7 15 4 8 1028.0 1028.0 0.0
26/12:00pm 16.5 14.4 9.7 64 3.5 S 11 17 6 9 1028.2 1028.2 0.0
26/11:30am 16.6 15.6 10.2 66 3.4 NE 6 9 3 5 1028.5 1028.5 0.0
26/11:00am 16.0 14.9 10.1 68 3.1 NE 6 9 3 5 1028.9 1028.9 0.0
26/10:30am 14.2 12.6 8.8 70 2.7 NNE 7 9 4 5 1029.2 1029.2 0.0
26/10:00am 12.5 10.8 8.2 75 2.1 NNE 7 11 4 6 1029.1 1029.1 0.0
26/09:30am 10.2 8.2 6.9 80 1.6 ENE 7 9 4 5 1029.2 1029.2 0.0
26/09:00am 9.1 7.2 6.5 84 1.2 NE 6 7 3 4 1029.2 1029.2 0.0
26/08:30am 7.8 6.2 6.3 90 0.7 NE 4 11 2 6 1029.0 1029.0 0.0
26/08:00am 6.7 5.4 6.1 96 0.3 S 2 7 1 4 1028.8 1028.8 0.0
26/07:30am 5.2 4.0 4.8 97 0.2 CALM 0 0 0 0 1028.5 1028.5 0.0
26/07:00am 4.7 3.4 4.1 96 0.3 CALM 0 0 0 0 1028.3 1028.3 0.0
26/06:30am 5.2 4.0 4.6 96 0.3 CALM 0 0 0 0 1028.2 1028.2 0.0
26/06:00am 5.3 4.1 4.7 96 0.3 CALM 0 0 0 0 1028.0 1028.0 0.0
26/05:30am 5.2 4.0 4.6 96 0.3 CALM 0 0 0 0 1027.9 1027.9 0.0
26/05:00am 5.1 3.9 4.5 96 0.3 CALM 0 0 0 0 1027.6 1027.6 0.0
26/04:30am 5.1 3.9 4.4 95 0.3 CALM 0 0 0 0 1027.5 1027.5 0.0
26/04:00am 5.8 4.7 4.9 94 0.4 CALM 0 2 0 1 1027.7 1027.7 0.0
26/03:30am 6.4 5.0 5.5 94 0.4 S 2 6 1 3 1027.7 1027.7 0.0
26/03:00am 6.6 5.7 6.0 96 0.3 CALM 0 6 0 3 1027.8 1027.8 0.0
26/02:30am 6.3 5.0 5.9 97 0.2 S 2 7 1 4 1027.8 1027.8 0.0
26/02:00am 5.7 3.9 5.3 97 0.2 S 4 7 2 4 1027.8 1027.8 0.0
26/01:30am 5.9 4.8 5.3 96 0.3 CALM 0 0 0 0 1028.0 1028.0 0.0
26/01:00am 6.0 5.0 5.4 96 0.3 CALM 0 0 0 0 1028.1 1028.1 0.0
26/12:30am 6.2 4.8 5.5 95 0.3 S 2 7 1 4 1027.9 1027.9 0.0
26/12:00am 6.5 5.2 5.8 95 0.3 S 2 7 1 4 1028.2 1028.2 0.0
 
Date/Time
WST
Temp
°C
App
Temp
°C
Dew
Point
°C
Rel
Hum
%
Delta-T
°C
Wind Press
QNH
hPa
Press
MSL
hPa
Rain since
9am
mm
Dir  Spd
km/h
Gust
km/h
Spd
kts
Gust
kts
25/11:30pm 6.9 6.1 6.3 96 0.3 CALM 0 0 0 0 1028.6 1028.6 0.0
25/11:00pm 6.8 5.9 5.9 94 0.4 CALM 0 0 0 0 1028.6 1028.6 0.0
25/10:30pm 7.0 5.7 6.1 94 0.4 S 2 6 1 3 1028.8 1028.8 0.0
25/10:00pm 7.4 6.6 6.3 93 0.5 CALM 0 0 0 0 1028.8 1028.8 0.0
25/09:30pm 7.6 6.8 6.4 92 0.5 CALM 0 0 0 0 1028.4 1028.4 0.0
25/09:00pm 7.9 7.1 6.4 90 0.7 CALM 0 0 0 0 1028.3 1028.3 0.0
25/08:30pm 8.5 7.7 6.6 88 0.9 CALM 0 0 0 0 1028.1 1028.1 0.0
25/08:00pm 9.3 8.6 6.9 85 1.1 CALM 0 0 0 0 1028.2 1028.2 0.0
25/07:30pm 10.2 9.6 7.3 82 1.4 CALM 0 0 0 0 1027.9 1027.9 0.0
25/07:00pm 11.6 10.5 6.9 73 2.2 S 2 6 1 3 1027.6 1027.6 0.0
25/06:30pm 12.9 11.1 7.1 68 2.8 S 6 9 3 5 1027.6 1027.6 0.0
25/06:00pm 13.4 11.4 7.0 65 3.1 S 7 9 4 5 1027.1 1027.1 0.0
25/05:30pm 14.2 12.2 7.0 62 3.5 S 7 11 4 6 1027.0 1027.0 0.0
25/05:00pm 14.9 12.5 7.2 60 3.8 SSW 9 15 5 8 1026.7 1026.7 0.0
25/04:30pm 15.8 13.7 6.8 55 4.4 SW 7 9 4 5 1026.5 1026.5 0.0
25/04:00pm 16.3 14.5 7.0 54 4.6 SSE 6 11 3 6 1026.5 1026.5 0.0
25/03:30pm 15.1 13.0 6.7 57 4.1 SSE 7 9 4 5 1026.5 1026.5 0.0
25/03:00pm 16.8 15.3 6.9 52 4.9 SSE 4 11 2 6 1026.5 1026.5 0.0
25/02:30pm 15.8 13.2 6.3 53 4.6 SSE 9 17 5 9 1026.6 1026.6 0.0
25/02:00pm 16.1 13.5 6.3 52 4.7 SSE 9 19 5 10 1026.8 1026.8 0.0
25/01:30pm 16.0 13.6 7.0 55 4.4 SSW 9 15 5 8 1026.9 1026.9 0.0
25/01:00pm 15.2 12.6 6.2 55 4.3 SE 9 20 5 11 1027.2 1027.2 0.0
25/12:30pm 16.1 13.5 7.6 57 4.3 S 11 19 6 10 1027.5 1027.5 0.0
25/12:00pm 15.2 12.1 7.3 59 3.9 S 13 22 7 12 1028.0 1028.0 0.0
25/11:30am 15.1 11.4 6.1 55 4.3 SE 15 22 8 12 1028.4 1028.4 0.0
25/11:00am 15.4 12.6 6.9 57 4.1 SSE 11 19 6 10 1028.5 1028.5 0.0
25/10:30am 14.5 12.7 7.1 61 3.6 E 6 11 3 6 1028.7 1028.7 0.0
25/10:00am 14.1 12.1 7.2 63 3.4 ENE 7 9 4 5 1028.7 1028.7 0.0
25/09:30am 12.9 11.0 7.4 69 2.7 ENE 7 11 4 6 1028.7 1028.7 0.0
25/09:00am 11.9 10.1 7.0 72 2.3 ENE 6 11 3 6 1028.6 1028.6 0.0
25/08:30am 11.0 9.0 7.3 78 1.8 ENE 7 13 4 7 1028.6 1028.6 0.0
25/08:00am 9.9 8.1 7.0 82 1.4 S 6 13 3 7 1028.2 1028.2 0.0
25/07:30am 8.5 6.9 6.3 86 1.0 S 4 7 2 4 1028.0 1028.0 0.0
25/07:00am 8.6 7.8 6.4 86 1.0 CALM 0 0 0 0 1027.6 1027.6 0.0
25/06:30am 8.7 7.4 6.2 84 1.1 S 2 6 1 3 1027.3 1027.3 0.0
25/06:00am 9.0 7.8 6.4 84 1.2 S 2 6 1 3 1027.1 1027.1 0.0
25/05:30am 9.2 8.4 6.5 83 1.3 CALM 0 0 0 0 1027.1 1027.1 0.0
25/05:00am 9.2 8.4 6.5 83 1.2 CALM 0 0 0 0 1027.0 1027.0 0.0
25/04:30am 9.1 8.3 6.4 83 1.2 CALM 0 0 0 0 1026.9 1026.9 0.0
25/04:00am 9.2 8.4 6.6 84 1.2 CALM 0 0 0 0 1027.0 1027.0 0.0
25/03:30am 9.0 7.4 6.4 84 1.2 S 4 7 2 4 1027.0 1027.0 0.0
25/03:00am 9.1 8.2 6.2 82 1.3 CALM 0 7 0 4 1027.2 1027.2 0.0
25/02:30am 9.1 8.3 6.5 84 1.2 CALM 0 0 0 0 1027.1 1027.1 0.0
25/02:00am 9.3 8.4 5.9 79 1.5 CALM 0 4 0 2 1027.0 1027.0 0.0
25/01:30am 9.3 7.2 5.7 78 1.6 S 6 7 3 4 1027.2 1027.2 0.0
25/01:00am 9.2 6.9 5.8 79 1.5 S 7 11 4 6 1027.3 1027.3 0.0
25/12:30am 9.3 7.2 5.9 79 1.6 S 6 9 3 5 1027.6 1027.6 0.0
25/12:00am 9.2 7.1 5.8 79 1.5 S 6 9 3 5 1027.7 1027.7 0.0
 
Date/Time
WST
Temp
°C
App
Temp
°C
Dew
Point
°C
Rel
Hum
%
Delta-T
°C
Wind Press
QNH
hPa
Press
MSL
hPa
Rain since
9am
mm
Dir  Spd
km/h
Gust
km/h
Spd
kts
Gust
kts
24/11:30pm 8.5 7.3 6.5 87 0.9 S 2 7 1 4 1028.0 1028.0 0.0
24/11:00pm 7.7 6.4 6.2 90 0.7 S 2 6 1 3 1028.1 1028.1 0.0
24/10:30pm 6.9 5.9 5.4 90 0.7 CALM 0 0 0 0 1028.1 1028.1 0.0
24/10:00pm 7.0 5.9 5.2 88 0.8 CALM 0 0 0 0 1028.2 1028.2 0.0
24/09:30pm 7.8 6.8 5.4 85 1.1 CALM 0 0 0 0 1028.0 1028.0 0.0
24/09:00pm 9.1 8.1 5.8 80 1.5 CALM 0 0 0 0 1028.0 1028.0 0.0
24/08:30pm 10.8 9.8 5.8 71 2.3 CALM 0 6 0 3 1027.7 1027.7 0.0
24/08:00pm 11.5 9.4 5.6 67 2.7 S 6 7 3 4 1027.6 1027.6 0.0
24/07:30pm 11.8 9.1 5.4 65 3.0 S 9 13 5 7 1027.5 1027.5 0.0
24/07:00pm 11.9 8.7 5.3 64 3.0 S 11 22 6 12 1027.2 1027.2 0.0
24/06:30pm 11.7 8.9 5.3 65 3.0 S 9 13 5 7 1027.0 1027.0 0.0
24/06:00pm 11.9 9.1 5.3 64 3.0 S 9 17 5 9 1026.7 1026.7 0.0
24/05:30pm 12.2 9.0 5.1 62 3.3 S 11 17 6 9 1026.6 1026.6 0.0
24/05:00pm 12.8 9.2 5.0 59 3.6 S 13 28 7 15 1026.4 1026.4 0.0
24/04:30pm 13.5 10.0 5.4 58 3.8 SSW 13 20 7 11 1026.3 1026.3 0.0
24/04:00pm 14.0 10.8 5.1 55 4.1 S 11 20 6 11 1026.2 1026.2 0.0
24/03:30pm 14.4 11.2 5.0 53 4.4 SSW 11 19 6 10 1026.2 1026.2 0.0
24/03:00pm 14.3 11.1 4.9 53 4.4 SSW 11 20 6 11 1026.1 1026.1 0.0
24/02:30pm 13.9 10.2 4.5 53 4.3 S 13 19 7 10 1026.2 1026.2 0.0
24/02:00pm 13.8 10.1 4.7 54 4.2 SSW 13 20 7 11 1026.4 1026.4 0.0

Latest Capital City Observations: Canberra | Sydney | Melbourne | Brisbane | Adelaide | Perth | Hobart | Darwin

Other Formats:

Comma delimited format used in spreadsheet applications
http://www.bom.gov.au/fwo/IDW60901/IDW60901.94608.axf

JavaScript Object Notation format (JSON) in row-major order
http://www.bom.gov.au/fwo/IDW60901/IDW60901.94608.json